createdAt,value
2019-03-20T00:00:51.748Z,27.40
2019-03-20T00:05:57.444Z,27.97
2019-03-20T00:11:03.202Z,26.50
2019-03-20T00:16:09.045Z,24.33
2019-03-20T00:21:14.960Z,23.97
2019-03-20T00:26:20.714Z,26.23
2019-03-20T00:31:26.480Z,26.87
2019-03-20T00:36:32.483Z,28.67
2019-03-20T00:41:38.456Z,30.30
2019-03-20T00:46:43.600Z,21.30
2019-03-20T00:52:08.405Z,24.70
2019-03-20T00:57:13.754Z,23.63
2019-03-20T01:02:18.936Z,26.07
2019-03-20T01:07:43.652Z,26.97
2019-03-20T01:12:49.305Z,28.87
2019-03-20T01:17:54.626Z,28.20
2019-03-20T01:23:00.264Z,27.67
2019-03-20T01:28:06.000Z,28.87
2019-03-20T01:33:15.051Z,28.47
2019-03-20T01:38:20.221Z,29.00
2019-03-20T01:43:25.833Z,29.43
2019-03-20T01:48:31.430Z,27.93
2019-03-20T01:53:56.232Z,27.47
2019-03-20T01:59:01.606Z,27.37
2019-03-20T02:04:07.152Z,31.67
2019-03-20T02:09:13.956Z,31.30
2019-03-20T02:14:20.738Z,31.47
2019-03-20T02:19:27.125Z,30.10
2019-03-20T02:24:33.495Z,31.90
2019-03-20T02:29:39.364Z,34.23
2019-03-20T02:34:47.094Z,36.10
2019-03-20T02:39:53.791Z,31.83
2019-03-20T02:45:00.387Z,29.60
2019-03-20T02:50:09.585Z,32.30
2019-03-20T02:55:15.797Z,31.03
2019-03-20T03:00:22.175Z,29.97
2019-03-20T03:05:28.568Z,36.70
2019-03-20T03:10:34.337Z,34.60
2019-03-20T03:15:40.109Z,31.57
2019-03-20T03:20:45.673Z,32.63
2019-03-20T03:26:10.293Z,43.47
2019-03-20T03:31:15.654Z,42.47
2019-03-20T03:36:40.264Z,46.13
2019-03-20T03:41:46.044Z,39.87
2019-03-20T03:47:03.401Z,44.40
2019-03-20T03:52:08.720Z,52.93
2019-03-20T03:57:14.520Z,48.80
2019-03-20T04:02:19.859Z,47.60
2019-03-20T04:07:25.176Z,47.13
2019-03-20T04:12:30.592Z,47.07
2019-03-20T04:17:35.925Z,45.70
2019-03-20T04:23:00.430Z,48.43
2019-03-20T04:28:06.434Z,43.60
2019-03-20T04:33:12.292Z,43.73
2019-03-20T04:38:17.973Z,43.97
2019-03-20T04:43:23.610Z,41.60
2019-03-20T04:48:29.799Z,44.43
2019-03-20T04:53:35.677Z,42.87
2019-03-20T04:58:41.202Z,43.37
2019-03-20T05:03:46.910Z,42.90
2019-03-20T05:08:52.175Z,41.20
2019-03-20T05:13:57.705Z,41.90
2019-03-20T05:19:03.087Z,39.33
2019-03-20T05:24:27.916Z,45.47
2019-03-20T05:29:33.312Z,44.00
2019-03-20T05:34:39.045Z,46.97
2019-03-20T05:39:44.590Z,51.97
2019-03-20T05:44:50.259Z,61.73
2019-03-20T05:49:56.258Z,74.83
2019-03-20T05:55:01.929Z,72.27
2019-03-20T06:00:22.884Z,78.93
2019-03-20T06:05:28.590Z,79.63
2019-03-20T06:10:33.985Z,100.07
2019-03-20T06:15:39.729Z,132.17
2019-03-20T06:20:45.609Z,103.33
2019-03-20T06:25:51.937Z,106.27
2019-03-20T06:30:57.347Z,107.73
2019-03-20T06:36:02.443Z,97.63
2019-03-20T06:41:08.064Z,105.50
2019-03-20T06:46:13.642Z,112.13
2019-03-20T06:51:18.932Z,111.30
2019-03-20T06:56:24.640Z,102.67
2019-03-20T07:01:30.009Z,96.77
2019-03-20T07:06:41.200Z,85.77
2019-03-20T07:11:46.582Z,90.93
2019-03-20T07:16:52.313Z,78.63
2019-03-20T07:21:58.344Z,62.67
2019-03-20T07:27:03.539Z,48.57
2019-03-20T07:32:08.655Z,39.20
2019-03-20T07:37:13.715Z,31.80
2019-03-20T07:42:19.132Z,23.70
2019-03-20T07:47:34.882Z,15.03
2019-03-20T07:52:40.231Z,13.37
2019-03-20T07:57:45.409Z,11.27
2019-03-20T08:02:51.101Z,10.33
2019-03-20T08:08:15.918Z,10.77
2019-03-20T08:13:21.304Z,7.07
2019-03-20T08:18:26.629Z,7.73
2019-03-20T08:23:31.898Z,6.13
2019-03-20T08:28:37.245Z,7.00
2019-03-20T08:34:02.498Z,6.30
2019-03-20T08:39:07.933Z,6.20
2019-03-20T08:44:13.313Z,6.97
2019-03-20T08:49:18.364Z,5.23
2019-03-20T08:54:23.569Z,5.83
2019-03-20T08:59:29.024Z,3.77
2019-03-20T09:04:53.433Z,4.33
2019-03-20T09:09:58.791Z,3.87
2019-03-20T09:15:05.648Z,2.60
2019-03-20T09:20:13.624Z,2.83
2019-03-20T09:25:20.265Z,2.40
2019-03-20T09:30:32.081Z,2.30
2019-03-20T09:35:37.424Z,3.10
2019-03-20T09:40:42.954Z,2.47
2019-03-20T09:45:48.222Z,2.40
2019-03-20T09:50:54.154Z,2.33
2019-03-20T09:55:59.732Z,2.23
2019-03-20T10:01:04.778Z,3.20
2019-03-20T10:06:10.592Z,2.57
2019-03-20T10:11:16.224Z,2.37
2019-03-20T10:16:21.867Z,2.20
2019-03-20T10:21:46.802Z,1.83
2019-03-20T10:26:52.669Z,2.90
2019-03-20T10:31:58.308Z,1.67
2019-03-20T10:37:03.603Z,2.20
2019-03-20T10:42:09.007Z,2.73
2019-03-20T10:47:14.725Z,2.50
2019-03-20T10:52:20.443Z,1.30
2019-03-20T10:57:25.753Z,2.43
2019-03-20T11:02:31.403Z,1.97
2019-03-20T11:07:36.435Z,2.57
2019-03-20T11:12:42.020Z,1.83
2019-03-20T11:17:47.241Z,2.37
2019-03-20T11:22:52.886Z,2.67
2019-03-20T11:27:58.647Z,2.03
2019-03-20T11:33:04.181Z,2.20
2019-03-20T11:38:09.561Z,1.63
2019-03-20T11:43:14.701Z,1.97
2019-03-20T11:48:20.696Z,2.00
2019-03-20T11:53:26.346Z,2.10
2019-03-20T11:58:32.008Z,2.67
2019-03-20T12:03:37.474Z,2.73
2019-03-20T12:08:43.281Z,3.53
2019-03-20T12:13:49.201Z,2.40
2019-03-20T12:18:54.485Z,2.20
2019-03-20T12:24:00.225Z,3.67
2019-03-20T12:29:05.824Z,3.97
2019-03-20T12:34:11.627Z,4.80
2019-03-20T12:39:16.955Z,4.03
2019-03-20T12:44:22.747Z,4.60
2019-03-20T12:49:28.084Z,4.97
2019-03-20T12:54:33.746Z,4.60
2019-03-20T12:59:40.317Z,4.33
2019-03-20T13:04:47.170Z,5.43
2019-03-20T13:09:59.583Z,4.67
2019-03-20T13:15:02.053Z,4.30
2019-03-20T13:20:10.807Z,4.60
2019-03-20T13:25:17.576Z,4.13
2019-03-20T13:30:42.706Z,4.10
2019-03-20T13:35:49.537Z,3.17
2019-03-20T13:40:56.555Z,2.87
2019-03-20T13:46:02.992Z,2.90
2019-03-20T13:51:09.801Z,2.70
2019-03-20T13:56:16.474Z,2.60
2019-03-20T14:01:22.914Z,1.67
2019-03-20T14:06:29.639Z,2.33
2019-03-20T14:11:36.556Z,1.93
2019-03-20T14:16:43.210Z,2.63
2019-03-20T14:21:49.688Z,2.17
2019-03-20T14:26:56.503Z,2.50
2019-03-20T14:32:03.007Z,2.37
2019-03-20T14:37:09.889Z,2.43
2019-03-20T14:42:16.608Z,2.70
2019-03-20T14:47:23.223Z,3.60
2019-03-20T14:52:29.714Z,2.77
2019-03-20T14:57:36.155Z,2.27
2019-03-20T15:02:43.041Z,3.40
2019-03-20T15:07:49.296Z,2.43
2019-03-20T15:12:56.589Z,2.80
2019-03-20T15:18:03.390Z,4.67
2019-03-20T15:23:10.080Z,3.40
2019-03-20T15:28:16.735Z,3.50
2019-03-20T15:33:23.595Z,2.83
2019-03-20T15:38:30.077Z,3.37
2019-03-20T15:43:36.693Z,3.03
2019-03-20T15:48:43.045Z,3.00
2019-03-20T15:53:49.337Z,2.87
2019-03-20T15:58:54.870Z,5.93
2019-03-20T16:04:00.658Z,4.20
2019-03-20T16:09:09.244Z,4.07
2019-03-20T16:14:14.655Z,3.23
2019-03-20T16:19:20.231Z,3.60
2019-03-20T16:24:26.455Z,4.30
2019-03-20T16:29:32.547Z,4.60
2019-03-20T16:34:38.014Z,6.83
2019-03-20T16:39:43.657Z,5.60
2019-03-20T16:44:49.420Z,5.17
2019-03-20T16:49:55.416Z,5.20
2019-03-20T16:55:00.859Z,5.50
2019-03-20T17:00:12.722Z,6.90
2019-03-20T17:05:18.245Z,9.50
2019-03-20T17:10:38.551Z,7.73
2019-03-20T17:15:45.561Z,7.30
2019-03-20T17:20:51.562Z,9.13
2019-03-20T17:25:57.136Z,9.53
2019-03-20T17:31:03.270Z,8.67
2019-03-20T17:36:09.129Z,10.03
2019-03-20T17:41:15.033Z,11.70
2019-03-20T17:46:20.887Z,6.70
2019-03-20T17:51:26.691Z,6.77
2019-03-20T17:56:32.632Z,6.13
2019-03-20T18:01:38.354Z,6.27
2019-03-20T18:06:44.271Z,10.83
2019-03-20T18:11:50.302Z,11.03
2019-03-20T18:16:56.101Z,9.03
2019-03-20T18:22:01.275Z,6.87
2019-03-20T18:27:06.738Z,7.40
2019-03-20T18:32:12.676Z,7.80
2019-03-20T18:37:18.089Z,7.70
2019-03-20T18:42:23.485Z,7.47
2019-03-20T18:47:28.772Z,5.77
2019-03-20T18:52:34.436Z,6.87
2019-03-20T18:57:40.099Z,7.07
2019-03-20T19:02:45.717Z,7.03
2019-03-20T19:07:51.668Z,7.93
2019-03-20T19:12:58.866Z,11.33
2019-03-20T19:18:04.605Z,6.50
2019-03-20T19:23:10.577Z,7.00
2019-03-20T19:28:16.205Z,5.53
2019-03-20T19:33:21.819Z,5.67
2019-03-20T19:38:34.763Z,5.77
2019-03-20T19:43:35.565Z,5.10
2019-03-20T19:48:41.916Z,5.27
2019-03-20T19:53:47.287Z,6.30
2019-03-20T19:58:52.871Z,5.43
2019-03-20T20:03:58.243Z,4.77
2019-03-20T20:09:05.837Z,6.70
2019-03-20T20:14:11.382Z,5.97
2019-03-20T20:19:17.106Z,6.13
2019-03-20T20:24:22.449Z,7.27
2019-03-20T20:29:28.160Z,6.43
2019-03-20T20:34:34.018Z,7.77
2019-03-20T20:39:39.748Z,6.83
2019-03-20T20:44:45.566Z,6.90
2019-03-20T20:49:50.746Z,8.70
2019-03-20T20:55:19.413Z,6.43
2019-03-20T21:00:28.814Z,8.00
2019-03-20T21:05:33.920Z,8.33
2019-03-20T21:10:38.808Z,7.60
2019-03-20T21:15:45.985Z,8.23
2019-03-20T21:20:51.854Z,7.00
2019-03-20T21:26:00.066Z,7.80
2019-03-20T21:31:09.128Z,7.87
2019-03-20T21:36:20.814Z,8.60
2019-03-20T21:41:31.796Z,8.93
2019-03-20T21:46:42.770Z,8.30
2019-03-20T21:51:48.172Z,9.70
2019-03-20T21:57:14.789Z,9.57
2019-03-20T22:02:41.187Z,11.97
2019-03-20T22:07:46.434Z,8.67
2019-03-20T22:13:26.266Z,9.47
2019-03-20T22:18:59.702Z,8.57
2019-03-20T22:24:25.853Z,8.77
2019-03-20T22:29:31.400Z,8.87
2019-03-20T22:34:45.230Z,8.33
2019-03-20T22:40:17.572Z,10.43
2019-03-20T22:46:01.196Z,9.17
2019-03-20T22:51:25.867Z,8.87
2019-03-20T22:56:34.492Z,8.97
2019-03-20T23:01:54.804Z,12.00
2019-03-20T23:07:00.601Z,10.73
2019-03-20T23:12:09.174Z,12.67
2019-03-20T23:17:14.748Z,9.83
2019-03-20T23:22:20.304Z,10.70
2019-03-20T23:27:27.117Z,12.40
2019-03-20T23:32:33.126Z,10.57
2019-03-20T23:37:38.678Z,10.87
2019-03-20T23:43:08.155Z,11.77
2019-03-20T23:48:22.568Z,12.27
2019-03-20T23:53:27.706Z,11.40
2019-03-20T23:58:33.268Z,11.43
